createdAt,value
2019-03-02T00:02:08.655Z,8.60
2019-03-02T00:04:42.055Z,8.49
2019-03-02T00:07:12.309Z,8.55
2019-03-02T00:09:43.090Z,8.49
2019-03-02T00:12:13.868Z,8.49
2019-03-02T00:14:44.620Z,8.45
2019-03-02T00:17:18.875Z,8.47
2019-03-02T00:19:48.056Z,8.41
2019-03-02T00:22:18.825Z,8.32
2019-03-02T00:24:49.587Z,8.42
2019-03-02T00:27:21.308Z,8.39
2019-03-02T00:29:52.899Z,8.41
2019-03-02T00:32:23.664Z,8.33
2019-03-02T00:34:54.419Z,8.33
2019-03-02T00:37:25.214Z,8.43
2019-03-02T00:39:55.973Z,8.39
2019-03-02T00:42:26.749Z,8.49
2019-03-02T00:44:57.551Z,8.50
2019-03-02T00:47:28.321Z,8.43
2019-03-02T00:50:01.033Z,8.43
2019-03-02T00:52:31.758Z,8.46
2019-03-02T00:55:04.327Z,8.47
2019-03-02T00:57:35.114Z,8.46
2019-03-02T01:00:16.415Z,8.47
2019-03-02T01:02:47.327Z,8.43
2019-03-02T01:05:18.082Z,8.48
2019-03-02T01:07:48.858Z,8.52
2019-03-02T01:10:22.715Z,8.52
2019-03-02T01:12:52.498Z,8.45
2019-03-02T01:15:23.269Z,8.44
2019-03-02T01:17:54.036Z,8.47
2019-03-02T01:20:28.561Z,8.41
2019-03-02T01:22:57.469Z,8.33
2019-03-02T01:25:28.225Z,8.32
2019-03-02T01:27:58.989Z,8.24
2019-03-02T01:30:30.861Z,8.31
2019-03-02T01:33:01.747Z,8.40
2019-03-02T01:35:32.510Z,8.36
2019-03-02T01:38:03.277Z,8.33
2019-03-02T01:40:34.034Z,8.39
2019-03-02T01:43:05.034Z,8.41
2019-03-02T01:45:36.470Z,8.43
2019-03-02T01:48:07.245Z,8.39
2019-03-02T01:50:37.998Z,8.36
2019-03-02T01:53:09.900Z,8.26
2019-03-02T01:55:41.431Z,8.26
2019-03-02T01:58:12.197Z,8.36
2019-03-02T02:00:45.802Z,8.36
2019-03-02T02:03:15.631Z,8.32
2019-03-02T02:05:46.390Z,8.38
2019-03-02T02:08:17.165Z,8.39
2019-03-02T02:10:47.926Z,8.31
2019-03-02T02:13:18.707Z,8.32
2019-03-02T02:15:49.462Z,8.33
2019-03-02T02:18:20.229Z,8.38
2019-03-02T02:20:51.659Z,8.36
2019-03-02T02:23:22.462Z,8.36
2019-03-02T02:25:53.222Z,8.34
2019-03-02T02:28:23.988Z,8.24
2019-03-02T02:30:54.743Z,8.31
2019-03-02T02:33:25.512Z,8.39
2019-03-02T02:35:56.288Z,8.22
2019-03-02T02:38:27.050Z,8.20
2019-03-02T02:40:57.898Z,8.20
2019-03-02T02:43:28.671Z,8.29
2019-03-02T02:45:59.535Z,8.29
2019-03-02T02:48:31.517Z,8.35
2019-03-02T02:51:04.314Z,8.32
2019-03-02T02:53:40.275Z,8.28
2019-03-02T02:56:08.315Z,8.39
2019-03-02T02:58:39.092Z,8.26
2019-03-02T03:01:09.852Z,8.20
2019-03-02T03:03:40.627Z,8.19
2019-03-02T03:06:11.384Z,8.14
2019-03-02T03:08:42.559Z,8.13
2019-03-02T03:11:13.427Z,8.15
2019-03-02T03:13:44.211Z,8.13
2019-03-02T03:16:16.606Z,8.12
2019-03-02T03:18:52.173Z,8.22
2019-03-02T03:21:26.794Z,8.26
2019-03-02T03:23:54.106Z,8.20
2019-03-02T03:26:25.041Z,8.22
2019-03-02T03:28:55.815Z,8.27
2019-03-02T03:31:30.997Z,8.20
2019-03-02T03:33:59.266Z,8.12
2019-03-02T03:36:33.844Z,8.12
2019-03-02T03:39:07.160Z,8.12
2019-03-02T03:41:42.859Z,8.08
2019-03-02T03:44:11.183Z,8.06
2019-03-02T03:46:41.964Z,8.11
2019-03-02T03:49:12.732Z,8.13
2019-03-02T03:51:43.503Z,8.11
2019-03-02T03:54:14.254Z,8.10
2019-03-02T03:56:45.013Z,8.17
2019-03-02T03:59:19.006Z,7.85
2019-03-02T04:01:52.121Z,8.06
2019-03-02T04:04:24.685Z,8.07
2019-03-02T04:06:54.099Z,8.12
2019-03-02T04:09:24.878Z,8.07
2019-03-02T04:11:55.638Z,8.09
2019-03-02T04:14:26.424Z,8.09
2019-03-02T04:17:00.491Z,8.11
2019-03-02T04:19:33.963Z,8.10
2019-03-02T04:22:09.518Z,8.17
2019-03-02T04:24:41.072Z,8.13
2019-03-02T04:27:15.432Z,8.15
2019-03-02T04:29:50.227Z,8.14
2019-03-02T04:32:17.560Z,8.06
2019-03-02T04:34:48.331Z,7.95
2019-03-02T04:37:23.432Z,7.96
2019-03-02T04:39:51.772Z,7.98
2019-03-02T04:42:22.526Z,7.96
2019-03-02T04:44:53.293Z,7.93
2019-03-02T04:47:26.265Z,7.94
2019-03-02T04:49:56.730Z,7.94
2019-03-02T04:52:27.488Z,8.00
2019-03-02T04:54:58.253Z,8.12
2019-03-02T04:57:29.339Z,8.10
2019-03-02T05:00:00.336Z,7.99
2019-03-02T05:02:31.056Z,7.99
2019-03-02T05:05:04.891Z,8.04
2019-03-02T05:07:34.620Z,8.10
2019-03-02T05:10:08.097Z,8.02
2019-03-02T05:12:38.858Z,8.02
2019-03-02T05:15:11.931Z,7.91
2019-03-02T05:17:44.258Z,7.97
2019-03-02T05:20:15.019Z,8.00
2019-03-02T05:22:45.776Z,7.84
2019-03-02T05:25:19.106Z,7.78
2019-03-02T05:27:49.201Z,7.90
2019-03-02T05:30:20.063Z,7.71
2019-03-02T05:32:51.381Z,7.61
2019-03-02T05:35:23.397Z,7.64
2019-03-02T05:37:54.156Z,7.69
2019-03-02T05:40:27.758Z,7.68
2019-03-02T05:42:57.585Z,7.58
2019-03-02T05:45:28.351Z,7.53
2019-03-02T05:48:00.953Z,7.45
2019-03-02T05:50:31.773Z,7.45
2019-03-02T05:53:02.534Z,7.43
2019-03-02T05:55:33.297Z,7.37
2019-03-02T05:58:04.070Z,7.45
2019-03-02T06:00:37.786Z,7.52
2019-03-02T06:03:07.485Z,7.44
2019-03-02T06:05:38.356Z,7.42
2019-03-02T06:08:09.124Z,7.42
2019-03-02T06:10:40.208Z,7.36
2019-03-02T06:13:10.985Z,7.35
2019-03-02T06:15:42.930Z,7.38
2019-03-02T06:18:14.418Z,7.40
2019-03-02T06:20:45.178Z,7.36
2019-03-02T06:23:15.949Z,7.41
2019-03-02T06:25:46.702Z,7.41
2019-03-02T06:28:19.602Z,7.47
2019-03-02T06:30:50.166Z,7.54
2019-03-02T06:33:32.620Z,7.48
2019-03-02T06:36:04.847Z,7.52
2019-03-02T06:38:36.060Z,7.53
2019-03-02T06:41:06.825Z,7.38
2019-03-02T06:43:37.582Z,7.33
2019-03-02T06:46:08.352Z,7.24
2019-03-02T06:48:41.612Z,7.29
2019-03-02T06:51:12.435Z,7.30
2019-03-02T06:53:43.357Z,7.25
2019-03-02T06:56:15.731Z,7.37
2019-03-02T06:58:46.691Z,7.32
2019-03-02T07:01:20.748Z,7.29
2019-03-02T07:03:50.139Z,7.33
2019-03-02T07:06:21.058Z,7.39
2019-03-02T07:08:51.826Z,7.40
2019-03-02T07:11:22.593Z,7.39
2019-03-02T07:13:56.116Z,7.29
2019-03-02T07:16:26.039Z,7.35
2019-03-02T07:19:01.418Z,7.24
2019-03-02T07:21:32.188Z,7.29
2019-03-02T07:24:03.020Z,7.37
2019-03-02T07:26:33.793Z,7.36
2019-03-02T07:29:04.551Z,7.25
2019-03-02T07:31:35.317Z,7.26
2019-03-02T07:34:08.787Z,7.28
2019-03-02T07:36:38.767Z,7.25
2019-03-02T07:39:09.576Z,7.34
2019-03-02T07:41:40.367Z,7.37
2019-03-02T07:44:11.179Z,7.29
2019-03-02T07:46:44.239Z,7.27
2019-03-02T07:49:14.626Z,7.19
2019-03-02T07:51:45.370Z,7.23
2019-03-02T07:54:16.137Z,7.23
2019-03-02T07:56:46.899Z,7.22
2019-03-02T07:59:17.667Z,7.24
2019-03-02T08:01:48.969Z,7.23
2019-03-02T08:04:21.154Z,7.36
2019-03-02T08:06:51.914Z,7.25
2019-03-02T08:09:25.824Z,7.35
2019-03-02T08:11:55.358Z,7.33
2019-03-02T08:14:26.122Z,7.41
2019-03-02T08:16:56.883Z,7.28
2019-03-02T08:19:27.655Z,7.30
2019-03-02T08:21:58.418Z,7.29
2019-03-02T08:24:29.188Z,7.36
2019-03-02T08:26:59.979Z,7.31
2019-03-02T08:29:30.744Z,7.28
2019-03-02T08:32:01.497Z,7.39
2019-03-02T08:34:32.269Z,7.43
2019-03-02T08:37:03.026Z,7.36
2019-03-02T08:39:33.863Z,7.40
2019-03-02T08:42:04.627Z,7.38
2019-03-02T08:44:35.389Z,7.29
2019-03-02T08:47:09.125Z,7.30
2019-03-02T08:49:41.781Z,7.46
2019-03-02T08:52:11.497Z,7.40
2019-03-02T08:54:42.354Z,7.43
2019-03-02T08:57:13.113Z,7.54
2019-03-02T08:59:43.882Z,7.54
2019-03-02T09:02:14.642Z,6.50
2019-03-02T09:04:47.290Z,7.58
2019-03-02T09:07:18.190Z,7.62
2019-03-02T09:09:48.951Z,7.75
2019-03-02T09:12:21.810Z,7.73
2019-03-02T09:14:52.393Z,7.77
2019-03-02T09:17:23.147Z,7.76
2019-03-02T09:19:55.771Z,7.71
2019-03-02T09:22:26.665Z,7.71
2019-03-02T09:24:59.219Z,7.75
2019-03-02T09:27:30.104Z,7.78
2019-03-02T09:30:01.139Z,7.77
2019-03-02T09:32:31.931Z,7.69
2019-03-02T09:35:04.417Z,7.80
2019-03-02T09:37:35.180Z,7.75
2019-03-02T09:40:17.506Z,7.84
2019-03-02T09:42:48.517Z,7.86
2019-03-02T09:45:19.495Z,7.72
2019-03-02T09:47:52.270Z,7.82
2019-03-02T09:50:23.153Z,7.82
2019-03-02T09:52:55.893Z,7.77
2019-03-02T09:55:26.593Z,8.03
2019-03-02T09:57:57.360Z,7.91
2019-03-02T10:00:29.577Z,7.91
2019-03-02T10:03:00.430Z,7.95
2019-03-02T10:05:31.207Z,7.97
2019-03-02T10:08:02.076Z,7.91
2019-03-02T10:10:33.311Z,8.00
2019-03-02T10:13:04.126Z,7.98
2019-03-02T10:15:34.914Z,7.98
2019-03-02T10:18:05.777Z,7.96
2019-03-02T10:20:38.960Z,7.93
2019-03-02T10:23:09.211Z,7.93
2019-03-02T10:25:40.038Z,7.90
2019-03-02T10:28:10.803Z,7.90
2019-03-02T10:30:41.558Z,7.87
2019-03-02T10:33:12.319Z,7.86
2019-03-02T10:35:43.161Z,7.96
2019-03-02T10:38:14.903Z,7.94
2019-03-02T10:40:46.617Z,7.93
2019-03-02T10:43:17.372Z,8.04
2019-03-02T10:45:48.351Z,8.27
2019-03-02T10:48:19.126Z,8.25
2019-03-02T10:50:49.896Z,8.25
2019-03-02T10:53:23.961Z,8.28
2019-03-02T10:55:53.366Z,8.30
2019-03-02T10:58:24.126Z,8.34
2019-03-02T11:00:54.907Z,8.27
2019-03-02T11:03:27.877Z,8.26
2019-03-02T11:06:00.330Z,8.31
2019-03-02T11:08:33.006Z,8.40
2019-03-02T11:11:08.700Z,8.41
2019-03-02T11:13:45.688Z,8.41
2019-03-02T11:16:27.834Z,8.42
2019-03-02T11:19:04.278Z,8.44
2019-03-02T11:21:39.937Z,8.40
2019-03-02T11:24:12.614Z,8.45
2019-03-02T11:26:51.101Z,8.42
2019-03-02T11:29:50.604Z,8.31
2019-03-02T11:32:33.077Z,8.29
2019-03-02T11:35:06.769Z,8.31
2019-03-02T11:37:58.085Z,8.37
2019-03-02T11:40:48.119Z,8.34
2019-03-02T11:43:36.854Z,8.36
2019-03-02T11:46:18.879Z,8.41
2019-03-02T11:48:56.888Z,8.37
2019-03-02T11:51:42.806Z,8.48
2019-03-02T11:54:18.015Z,8.44
2019-03-02T11:57:08.593Z,8.48
2019-03-02T11:59:50.211Z,8.49
2019-03-02T12:02:25.718Z,8.46
2019-03-02T12:05:16.747Z,8.36
2019-03-02T12:08:07.348Z,8.42
2019-03-02T12:10:42.823Z,8.45
2019-03-02T12:13:18.074Z,8.37
2019-03-02T12:16:01.537Z,8.31
2019-03-02T12:18:34.270Z,8.33
2019-03-02T12:21:21.244Z,8.41
2019-03-02T12:23:53.329Z,8.35
2019-03-02T12:26:32.005Z,8.43
2019-03-02T12:29:04.783Z,8.41
2019-03-02T12:31:43.362Z,8.51
2019-03-02T12:34:34.582Z,8.58
2019-03-02T12:37:07.715Z,8.57
2019-03-02T12:40:02.820Z,8.60
2019-03-02T12:42:37.198Z,8.61
2019-03-02T12:45:25.270Z,8.73
2019-03-02T12:48:10.084Z,8.74
2019-03-02T12:50:42.762Z,8.74
2019-03-02T12:53:28.672Z,8.80
2019-03-02T12:56:04.826Z,8.85
2019-03-02T12:58:40.039Z,8.88
2019-03-02T13:01:18.249Z,8.79
2019-03-02T13:03:50.923Z,8.82
2019-03-02T13:06:32.137Z,8.83
2019-03-02T13:09:16.097Z,8.79
2019-03-02T13:11:54.872Z,8.86
2019-03-02T13:14:33.466Z,8.85
2019-03-02T13:17:06.277Z,8.82
2019-03-02T13:19:47.622Z,8.82
2019-03-02T13:22:20.290Z,8.87
2019-03-02T13:25:09.342Z,8.85
2019-03-02T13:27:45.013Z,8.84
2019-03-02T13:30:29.527Z,8.87
2019-03-02T13:33:01.134Z,8.97
2019-03-02T13:35:33.814Z,8.95
2019-03-02T13:38:06.486Z,9.00
2019-03-02T13:40:39.150Z,8.95
2019-03-02T13:43:17.840Z,8.93
2019-03-02T13:45:55.133Z,8.94
2019-03-02T13:48:44.498Z,8.93
2019-03-02T13:51:26.045Z,9.01
2019-03-02T13:54:09.655Z,8.97
2019-03-02T13:57:01.020Z,8.96
2019-03-02T13:59:43.738Z,8.90
2019-03-02T14:02:35.071Z,8.92
2019-03-02T14:05:14.335Z,8.94
2019-03-02T14:07:47.042Z,8.95
2019-03-02T14:10:28.558Z,9.03
2019-03-02T14:13:03.872Z,9.05
2019-03-02T14:15:42.157Z,9.13
2019-03-02T14:18:29.648Z,9.18
2019-03-02T14:21:05.603Z,9.14
2019-03-02T14:23:40.857Z,8.98
2019-03-02T14:26:29.857Z,9.01
2019-03-02T14:29:02.534Z,9.04
2019-03-02T14:31:37.859Z,8.96
2019-03-02T14:34:11.928Z,9.02
2019-03-02T14:36:44.358Z,9.02
2019-03-02T14:39:29.691Z,9.07
2019-03-02T14:42:08.759Z,9.09
2019-03-02T14:44:44.454Z,9.09
2019-03-02T14:47:36.603Z,9.05
2019-03-02T14:50:09.422Z,9.06
2019-03-02T14:52:42.097Z,9.07
2019-03-02T14:55:29.300Z,9.15
2019-03-02T14:58:07.829Z,9.11
2019-03-02T15:00:40.530Z,9.16
2019-03-02T15:03:19.226Z,9.24
2019-03-02T15:05:53.192Z,9.24
2019-03-02T15:08:38.706Z,9.21
2019-03-02T15:11:13.889Z,9.22
2019-03-02T15:14:05.630Z,9.24
2019-03-02T15:16:38.179Z,9.31
2019-03-02T15:19:16.768Z,9.21
2019-03-02T15:21:58.290Z,9.25
2019-03-02T15:24:36.495Z,9.24
2019-03-02T15:27:16.854Z,9.19
2019-03-02T15:29:53.731Z,9.15
2019-03-02T15:32:31.371Z,9.25
2019-03-02T15:35:07.962Z,9.14
2019-03-02T15:37:40.649Z,9.11
2019-03-02T15:40:13.311Z,9.07
2019-03-02T15:43:03.918Z,9.04
2019-03-02T15:45:39.630Z,9.05
2019-03-02T15:48:18.109Z,9.05
2019-03-02T15:50:59.921Z,9.11
2019-03-02T15:53:38.469Z,9.10
2019-03-02T15:56:20.058Z,9.08
2019-03-02T15:59:01.112Z,7.90
2019-03-02T16:01:36.833Z,9.04
2019-03-02T16:04:15.311Z,9.06
2019-03-02T16:07:02.078Z,8.97
2019-03-02T16:09:51.086Z,8.91
2019-03-02T16:12:32.722Z,8.98
2019-03-02T16:15:13.646Z,8.91
2019-03-02T16:17:46.322Z,8.91
2019-03-02T16:20:21.951Z,8.88
2019-03-02T16:23:11.666Z,8.92
2019-03-02T16:26:02.242Z,8.91
2019-03-02T16:28:47.159Z,8.82
2019-03-02T16:31:22.340Z,8.83
2019-03-02T16:34:08.714Z,8.71
2019-03-02T16:36:41.486Z,8.75
2019-03-02T16:39:32.525Z,8.71
2019-03-02T16:42:07.182Z,8.75
2019-03-02T16:44:40.391Z,8.75
2019-03-02T16:47:21.913Z,8.71
2019-03-02T16:49:57.338Z,8.66
2019-03-02T16:52:32.752Z,8.67
2019-03-02T16:55:10.862Z,8.62
2019-03-02T16:57:43.868Z,8.54
2019-03-02T17:00:41.960Z,8.54
2019-03-02T17:03:20.200Z,8.52
2019-03-02T17:06:09.780Z,8.58
2019-03-02T17:08:59.493Z,8.63
2019-03-02T17:11:35.478Z,8.61
2019-03-02T17:14:21.470Z,8.52
2019-03-02T17:16:56.913Z,8.59
2019-03-02T17:19:35.446Z,8.55
2019-03-02T17:22:08.114Z,8.61
2019-03-02T17:24:43.930Z,8.47
2019-03-02T17:27:17.734Z,8.45
2019-03-02T17:29:57.342Z,8.53
2019-03-02T17:32:30.010Z,8.52
2019-03-02T17:35:02.691Z,8.49
2019-03-02T17:37:52.104Z,8.48
2019-03-02T17:40:24.845Z,8.45
2019-03-02T17:43:12.669Z,8.48
2019-03-02T17:45:48.277Z,8.49
2019-03-02T17:48:23.897Z,8.50
2019-03-02T17:51:13.175Z,8.48
2019-03-02T17:53:45.953Z,8.53
2019-03-02T17:56:21.136Z,8.46
2019-03-02T17:58:57.119Z,8.47
2019-03-02T18:01:35.845Z,8.56
2019-03-02T18:04:08.622Z,8.54
2019-03-02T18:06:47.073Z,8.51
2019-03-02T18:09:23.964Z,8.42
2019-03-02T18:11:59.789Z,8.41
2019-03-02T18:14:38.273Z,8.43
2019-03-02T18:17:19.083Z,8.40
2019-03-02T18:19:49.591Z,8.36
2019-03-02T18:22:20.366Z,8.36
2019-03-02T18:24:51.118Z,8.37
2019-03-02T18:27:21.886Z,8.34
2019-03-02T18:29:52.643Z,8.33
2019-03-02T18:32:23.505Z,8.36
2019-03-02T18:34:56.806Z,8.34
2019-03-02T18:37:30.518Z,8.28
2019-03-02T18:40:02.357Z,8.25
2019-03-02T18:42:32.293Z,8.19
2019-03-02T18:45:05.865Z,8.23
2019-03-02T18:47:36.657Z,8.19
2019-03-02T18:50:32.757Z,8.20
2019-03-02T18:53:03.607Z,8.16
2019-03-02T18:55:34.370Z,8.15
2019-03-02T18:58:05.233Z,8.11
2019-03-02T19:00:37.895Z,8.08
2019-03-02T19:03:08.766Z,8.18
2019-03-02T19:05:39.825Z,8.17
2019-03-02T19:08:11.658Z,8.15
2019-03-02T19:10:44.140Z,8.17
2019-03-02T19:13:14.957Z,8.20
2019-03-02T19:15:53.548Z,8.18
2019-03-02T19:18:18.384Z,8.09
2019-03-02T19:20:49.139Z,8.13
2019-03-02T19:23:19.909Z,8.10
2019-03-02T19:25:50.685Z,8.07
2019-03-02T19:28:21.450Z,8.06
2019-03-02T19:30:52.205Z,8.10
2019-03-02T19:33:22.976Z,8.08
2019-03-02T19:35:53.729Z,8.13
2019-03-02T19:38:24.495Z,8.04
2019-03-02T19:40:55.251Z,8.06
2019-03-02T19:43:26.014Z,7.94
2019-03-02T19:45:56.769Z,8.00
2019-03-02T19:48:27.536Z,7.94
2019-03-02T19:50:58.295Z,7.94
2019-03-02T19:53:29.170Z,7.99
2019-03-02T19:55:59.931Z,8.01
2019-03-02T19:58:30.700Z,8.07
2019-03-02T20:01:01.464Z,8.05
2019-03-02T20:03:32.230Z,7.96
2019-03-02T20:06:03.090Z,7.96
2019-03-02T20:08:33.918Z,7.95
2019-03-02T20:11:04.675Z,8.00
2019-03-02T20:13:35.446Z,7.97
2019-03-02T20:16:06.209Z,7.92
2019-03-02T20:18:36.982Z,7.98
2019-03-02T20:21:07.737Z,7.92
2019-03-02T20:23:38.607Z,7.90
2019-03-02T20:26:09.375Z,7.90
2019-03-02T20:28:40.137Z,7.89
2019-03-02T20:31:10.894Z,7.91
2019-03-02T20:33:41.658Z,7.92
2019-03-02T20:36:12.435Z,7.89
2019-03-02T20:38:43.213Z,6.81
2019-03-02T20:41:13.964Z,7.91
2019-03-02T20:43:44.730Z,7.81
2019-03-02T20:46:15.509Z,7.81
2019-03-02T20:48:46.284Z,7.72
2019-03-02T20:51:17.040Z,7.31
2019-03-02T20:53:47.806Z,7.66
2019-03-02T20:56:18.567Z,7.58
2019-03-02T20:58:49.385Z,7.62
2019-03-02T21:01:20.391Z,7.59
2019-03-02T21:03:51.162Z,7.53
2019-03-02T21:06:21.921Z,7.57
2019-03-02T21:08:52.699Z,7.54
2019-03-02T21:11:23.470Z,7.52
2019-03-02T21:13:54.237Z,7.44
2019-03-02T21:16:24.995Z,7.36
2019-03-02T21:18:55.758Z,7.30
2019-03-02T21:21:26.549Z,7.31
2019-03-02T21:23:58.193Z,7.34
2019-03-02T21:26:29.069Z,7.37
2019-03-02T21:28:59.881Z,7.33
2019-03-02T21:31:30.593Z,7.35
2019-03-02T21:34:01.449Z,7.36
2019-03-02T21:36:32.207Z,7.31
2019-03-02T21:39:04.698Z,7.32
2019-03-02T21:41:35.461Z,7.34
2019-03-02T21:44:06.216Z,7.37
2019-03-02T21:46:36.983Z,7.44
2019-03-02T21:49:07.738Z,7.42
2019-03-02T21:51:38.504Z,7.42
2019-03-02T21:54:09.265Z,7.40
2019-03-02T21:56:40.026Z,7.38
2019-03-02T21:59:10.892Z,7.40
2019-03-02T22:01:41.657Z,7.34
2019-03-02T22:04:12.418Z,7.37
2019-03-02T22:06:43.181Z,7.41
2019-03-02T22:09:13.952Z,7.44
2019-03-02T22:11:44.722Z,7.47
2019-03-02T22:14:15.488Z,7.46
2019-03-02T22:16:46.274Z,7.57
2019-03-02T22:19:17.033Z,7.54
2019-03-02T22:21:47.805Z,7.62
2019-03-02T22:24:18.561Z,7.61
2019-03-02T22:26:49.332Z,7.63
2019-03-02T22:29:20.096Z,7.68
2019-03-02T22:31:50.858Z,7.62
2019-03-02T22:34:21.619Z,7.69
2019-03-02T22:36:52.427Z,7.64
2019-03-02T22:39:23.190Z,7.71
2019-03-02T22:41:53.958Z,7.70
2019-03-02T22:44:24.720Z,7.62
2019-03-02T22:46:55.487Z,7.69
2019-03-02T22:49:26.247Z,7.68
2019-03-02T22:51:57.009Z,7.67
2019-03-02T22:54:27.766Z,7.71
2019-03-02T22:56:58.550Z,7.63
2019-03-02T22:59:29.315Z,7.66
2019-03-02T23:02:03.893Z,7.71
2019-03-02T23:04:34.759Z,7.61
2019-03-02T23:07:05.535Z,7.60
2019-03-02T23:09:36.305Z,7.59
2019-03-02T23:12:07.078Z,7.62
2019-03-02T23:14:37.838Z,7.70
2019-03-02T23:17:08.606Z,7.65
2019-03-02T23:19:39.362Z,7.62
2019-03-02T23:22:10.129Z,7.67
2019-03-02T23:24:40.965Z,7.69
2019-03-02T23:27:11.734Z,7.74
2019-03-02T23:29:42.497Z,7.65
2019-03-02T23:32:13.265Z,7.70
2019-03-02T23:34:44.029Z,7.73
2019-03-02T23:37:14.799Z,7.67
2019-03-02T23:39:45.562Z,7.71
2019-03-02T23:42:17.354Z,7.75
2019-03-02T23:44:48.128Z,7.77
2019-03-02T23:47:18.934Z,7.78
2019-03-02T23:49:49.692Z,7.73
2019-03-02T23:52:20.445Z,7.71
2019-03-02T23:54:51.213Z,7.78
2019-03-02T23:57:21.972Z,7.77
2019-03-02T23:59:52.736Z,7.85
